Time;durP1;ratioP1;P1;durP2;ratioP2;P2;SDS_P1;SDS_P2;PMS_P1;PMS_P2;Temp;Humidity;BMP_temperature;BMP_pressure;BME280_temperature;BME280_humidity;BME280_pressure;Samples;Min_cycle;Max_cycle;Signal;HPM_P1;HPM_P2
2022/09/27 00:00:59;;;;;;;1.65;1.55;;;10.80;93.70;;;;;;5034143;28;20222;-86
2022/09/27 00:03:29;;;;;;;1.90;1.60;;;10.90;93.80;;;;;;5040917;28;20186;-85
2022/09/27 00:06:04;;;;;;;1.83;1.60;;;10.90;94.00;;;;;;5042711;28;20237;-85
2022/09/27 00:08:51;;;;;;;1.85;1.70;;;11.00;93.70;;;;;;5037424;28;20194;-85
2022/09/27 00:11:26;;;;;;;1.70;1.60;;;11.10;93.00;;;;;;5038134;28;20190;-85
2022/09/27 00:13:59;;;;;;;2.55;1.70;;;11.00;93.30;;;;;;5038624;28;20206;-85
2022/09/27 00:16:28;;;;;;;2.30;1.80;;;11.00;93.80;;;;;;5037518;28;20209;-86
2022/09/27 00:19:00;;;;;;;2.80;1.83;;;10.90;94.40;;;;;;5037689;28;20218;-86
2022/09/27 00:21:29;;;;;;;1.88;1.70;;;10.90;94.70;;;;;;5033950;28;20231;-85
2022/09/27 00:23:56;;;;;;;3.22;1.70;;;10.80;95.10;;;;;;5035851;28;20199;-85
2022/09/27 00:26:28;;;;;;;2.20;1.80;;;10.80;95.30;;;;;;5038276;28;20206;-86
2022/09/27 00:28:55;;;;;;;3.47;1.88;;;10.80;95.90;;;;;;5034120;28;20202;-86
2022/09/27 00:31:30;;;;;;;2.33;1.55;;;10.70;95.90;;;;;;5034770;28;20575;-85
2022/09/27 00:34:02;;;;;;;3.45;1.70;;;10.60;96.50;;;;;;5035153;28;20592;-85
2022/09/27 00:36:30;;;;;;;2.33;1.75;;;10.60;96.90;;;;;;5031582;28;20551;-86
2022/09/27 00:38:58;;;;;;;3.67;1.80;;;10.60;97.40;;;;;;5034855;28;20210;-86
2022/09/27 00:41:28;;;;;;;2.53;1.65;;;10.60;97.60;;;;;;5036168;28;20264;-85
2022/09/27 00:43:56;;;;;;;2.13;1.70;;;10.60;97.50;;;;;;5033057;28;20576;-85
2022/09/27 00:46:29;;;;;;;2.05;1.80;;;10.70;97.60;;;;;;5034637;28;20224;-85
2022/09/27 00:49:16;;;;;;;3.40;1.80;;;10.90;98.00;;;;;;5037222;28;20584;-85
2022/09/27 00:51:46;;;;;;;2.35;2.08;;;10.90;97.70;;;;;;5034876;28;20198;-86
2022/09/27 00:54:17;;;;;;;3.70;1.80;;;10.90;97.90;;;;;;5033922;28;20195;-86
2022/09/27 00:56:44;;;;;;;2.05;1.85;;;10.80;98.50;;;;;;5031728;28;20581;-86
2022/09/27 00:59:16;;;;;;;1.90;1.70;;;10.70;98.50;;;;;;5032483;28;20202;-85
2022/09/27 01:01:46;;;;;;;2.03;1.83;;;10.80;98.80;;;;;;5024617;28;20226;-85
2022/09/27 01:04:17;;;;;;;1.95;1.60;;;10.80;98.40;;;;;;5029291;28;20221;-85
2022/09/27 01:06:44;;;;;;;1.70;1.60;;;10.90;98.40;;;;;;5034942;28;20215;-86
2022/09/27 01:09:16;;;;;;;3.35;1.67;;;10.90;98.50;;;;;;5034710;28;20680;-85
2022/09/27 01:11:48;;;;;;;3.40;1.90;;;11.00;98.40;;;;;;5034325;28;20199;-85
2022/09/27 01:14:52;;;;;;;1.80;1.70;;;10.80;98.50;;;;;;5033441;28;20288;-85
2022/09/27 01:17:37;;;;;;;2.05;1.85;;;10.70;99.30;;;;;;5031643;28;20222;-85
2022/09/27 01:20:24;;;;;;;3.50;1.83;;;10.80;99.30;;;;;;5030319;28;20206;-85
2022/09/27 01:23:08;;;;;;;2.53;1.88;;;10.90;98.80;;;;;;5036124;28;20231;-85
2022/09/27 01:25:54;;;;;;;2.10;1.90;;;10.90;99.20;;;;;;5036566;28;20202;-86
2022/09/27 01:28:31;;;;;;;2.42;1.80;;;10.80;99.60;;;;;;5030160;28;20198;-85
2022/09/27 01:31:03;;;;;;;3.63;1.90;;;10.80;98.90;;;;;;5024040;28;20202;-85
2022/09/27 01:33:46;;;;;;;1.85;1.63;;;10.70;98.90;;;;;;5018717;28;20210;-85
2022/09/27 01:36:28;;;;;;;1.90;1.75;;;10.70;99.10;;;;;;5039562;28;20195;-85
2022/09/27 01:39:06;;;;;;;2.00;1.80;;;10.60;99.50;;;;;;5032783;28;20674;-85
2022/09/27 01:41:38;;;;;;;1.88;1.70;;;10.60;99.10;;;;;;5031781;28;20222;-85
2022/09/27 01:44:12;;;;;;;2.53;1.88;;;10.50;99.40;;;;;;5031372;28;20194;-85
2022/09/27 01:46:46;;;;;;;2.22;1.60;;;10.50;99.90;;;;;;5033696;28;20572;-85
2022/09/27 01:49:20;;;;;;;2.15;1.90;;;10.50;99.90;;;;;;5029836;28;20202;-85
2022/09/27 01:51:52;;;;;;;2.00;1.80;;;10.50;99.90;;;;;;5033615;28;20645;-85
2022/09/27 01:54:28;;;;;;;2.67;1.90;;;10.50;99.90;;;;;;5034223;28;20198;-85
2022/09/27 01:56:58;;;;;;;1.80;1.70;;;10.60;99.90;;;;;;5035182;28;20194;-85
2022/09/27 01:59:28;;;;;;;4.20;1.92;;;10.60;99.90;;;;;;5036984;28;20211;-85
2022/09/27 02:02:04;;;;;;;1.98;1.75;;;10.60;99.90;;;;;;5040248;28;20222;-85
2022/09/27 02:04:38;;;;;;;2.92;2.30;;;10.50;99.90;;;;;;5039519;28;20228;-85
2022/09/27 02:07:10;;;;;;;2.28;2.00;;;10.50;99.90;;;;;;5036656;28;20198;-85
2022/09/27 02:09:41;;;;;;;3.08;2.17;;;10.60;99.90;;;;;;5035834;28;20657;-85
2022/09/27 02:12:13;;;;;;;2.40;2.10;;;10.60;99.90;;;;;;5032492;28;20234;-86
2022/09/27 02:14:48;;;;;;;2.90;2.10;;;10.60;99.90;;;;;;5027649;28;20221;-85
2022/09/27 02:17:25;;;;;;;3.75;2.15;;;10.50;99.90;;;;;;5030301;28;20230;-85
2022/09/27 02:20:01;;;;;;;4.03;2.10;;;10.50;99.90;;;;;;5039412;28;20567;-85
2022/09/27 02:22:35;;;;;;;2.40;2.20;;;10.50;99.90;;;;;;5032351;28;20210;-85
2022/09/27 02:25:10;;;;;;;2.53;2.30;;;10.40;99.90;;;;;;5035924;28;20228;-85
2022/09/27 02:27:46;;;;;;;4.45;2.00;;;10.40;99.90;;;;;;5029569;28;20213;-85
2022/09/27 02:30:15;;;;;;;2.05;1.85;;;10.40;99.90;;;;;;5043104;28;20675;-85
2022/09/27 02:32:43;;;;;;;3.00;2.30;;;10.40;99.90;;;;;;5044624;28;20611;-85
2022/09/27 02:35:15;;;;;;;3.38;2.08;;;10.40;99.90;;;;;;5038058;28;20198;-85
2022/09/27 02:37:42;;;;;;;3.25;2.40;;;10.40;99.90;;;;;;5036817;28;20202;-85
2022/09/27 02:40:10;;;;;;;2.50;2.25;;;10.40;99.90;;;;;;5034613;28;20195;-85
2022/09/27 02:42:37;;;;;;;3.08;2.40;;;10.40;99.90;;;;;;5044608;28;20604;-85
2022/09/27 02:45:18;;;;;;;4.35;2.40;;;10.30;99.90;;;;;;5036915;28;20205;-85
2022/09/27 02:47:58;;;;;;;5.22;2.55;;;10.30;99.90;;;;;;5039118;28;20202;-86
2022/09/27 02:50:46;;;;;;;3.97;2.40;;;10.40;99.90;;;;;;5036078;28;20221;-85
2022/09/27 02:53:21;;;;;;;2.60;2.33;;;10.50;99.90;;;;;;5037556;28;20203;-85
2022/09/27 02:55:57;;;;;;;3.05;2.28;;;10.40;99.90;;;;;;5028015;28;20212;-85
2022/09/27 02:58:33;;;;;;;2.65;2.38;;;10.40;99.90;;;;;;5028329;28;20570;-86
2022/09/27 03:01:11;;;;;;;2.50;2.13;;;10.40;99.90;;;;;;5036361;28;20205;-85
2022/09/27 03:03:49;;;;;;;5.30;2.33;;;10.40;99.90;;;;;;5028589;28;20216;-85
2022/09/27 03:06:18;;;;;;;2.58;2.25;;;10.40;99.90;;;;;;5035823;28;20568;-85
2022/09/27 03:08:46;;;;;;;2.85;2.38;;;10.40;99.90;;;;;;5025698;28;20202;-85
2022/09/27 03:11:13;;;;;;;4.57;2.55;;;10.30;99.90;;;;;;5036496;28;20205;-85
2022/09/27 03:13:40;;;;;;;3.10;2.42;;;10.20;99.90;;;;;;5038708;28;20213;-85
2022/09/27 03:16:07;;;;;;;3.72;2.22;;;10.30;99.90;;;;;;5037302;28;20220;-85
2022/09/27 03:18:35;;;;;;;2.97;2.65;;;10.30;99.90;;;;;;5037226;28;20272;-85
2022/09/27 03:21:03;;;;;;;5.15;2.50;;;10.30;99.90;;;;;;5034396;28;20656;-85
2022/09/27 03:23:31;;;;;;;3.53;2.33;;;10.30;99.90;;;;;;5036889;28;20225;-85
2022/09/27 03:25:58;;;;;;;3.13;2.38;;;10.30;99.90;;;;;;5037630;28;20207;-86
2022/09/27 03:28:28;;;;;;;5.70;2.60;;;10.30;99.90;;;;;;5036412;28;20807;-85
2022/09/27 03:30:55;;;;;;;2.75;2.50;;;10.30;99.90;;;;;;5038608;28;20214;-85
2022/09/27 03:33:22;;;;;;;4.00;2.40;;;10.30;99.90;;;;;;5042887;28;20191;-85
2022/09/27 03:35:49;;;;;;;3.97;2.63;;;10.30;99.90;;;;;;5046932;28;20217;-85
2022/09/27 03:38:17;;;;;;;3.08;2.70;;;10.30;99.90;;;;;;5046833;28;20297;-85
2022/09/27 03:40:44;;;;;;;3.08;2.53;;;10.30;99.90;;;;;;5043926;28;20241;-85
2022/09/27 03:43:11;;;;;;;3.55;2.55;;;10.30;99.90;;;;;;5035646;28;20233;-85
2022/09/27 03:45:38;;;;;;;3.35;2.40;;;10.20;99.90;;;;;;5036771;28;20293;-85
2022/09/27 03:48:05;;;;;;;4.53;2.45;;;10.30;99.90;;;;;;5036491;28;20195;-85
2022/09/27 03:50:32;;;;;;;2.75;2.45;;;10.20;99.90;;;;;;5036296;28;20205;-85
2022/09/27 03:52:58;;;;;;;2.95;2.65;;;10.20;99.90;;;;;;5020602;28;20231;-85
2022/09/27 03:55:27;;;;;;;3.17;2.55;;;10.20;99.90;;;;;;5031538;28;20646;-85
2022/09/27 03:57:58;;;;;;;3.75;2.50;;;10.30;99.90;;;;;;5041052;28;20199;-85
2022/09/27 04:00:29;;;;;;;4.43;2.60;;;10.30;99.90;;;;;;5034522;28;20203;-85
2022/09/27 04:03:10;;;;;;;2.60;2.40;;;10.30;99.90;;;;;;5029512;28;20287;-85
2022/09/27 04:05:40;;;;;;;2.85;2.30;;;10.40;99.90;;;;;;5021139;28;20226;-86
2022/09/27 04:08:28;;;;;;;7.25;2.65;;;10.40;99.90;;;;;;5019663;28;20203;-85
2022/09/27 04:10:57;;;;;;;4.43;2.40;;;10.40;99.90;;;;;;5027538;28;20209;-85
2022/09/27 04:13:24;;;;;;;2.40;2.20;;;10.40;99.90;;;;;;5035369;28;20191;-87
2022/09/27 04:15:51;;;;;;;3.92;2.60;;;10.40;99.90;;;;;;5034290;28;20214;-86
2022/09/27 04:18:18;;;;;;;7.80;2.63;;;10.40;99.90;;;;;;5031204;28;20207;-85
2022/09/27 04:20:58;;;;;;;3.13;2.42;;;10.50;99.90;;;;;;5033656;28;20203;-85
2022/09/27 04:23:25;;;;;;;4.03;2.67;;;10.50;99.90;;;;;;5034930;28;20218;-85
2022/09/27 04:25:51;;;;;;;5.43;2.50;;;10.50;99.90;;;;;;5033613;28;20206;-85
2022/09/27 04:28:19;;;;;;;3.53;2.20;;;10.30;99.90;;;;;;5031925;28;20281;-85
2022/09/27 04:30:52;;;;;;;3.03;2.20;;;10.40;99.90;;;;;;5036380;28;20206;-85
2022/09/27 04:33:19;;;;;;;4.47;2.72;;;10.40;99.90;;;;;;5026401;28;20199;-85
2022/09/27 04:38:35;;;;;;;3.42;2.60;;;10.40;99.90;;;;;;5034539;28;20202;-84
2022/09/27 04:41:02;;;;;;;3.75;2.95;;;10.40;99.90;;;;;;5033687;28;20196;-85
2022/09/27 04:43:41;;;;;;;4.13;2.38;;;10.30;99.90;;;;;;5037341;28;20232;-84
2022/09/27 04:46:10;;;;;;;2.58;2.38;;;10.30;99.90;;;;;;5035143;28;20202;-85
2022/09/27 04:48:37;;;;;;;2.25;2.08;;;10.40;99.90;;;;;;5035495;28;20201;-85
2022/09/27 04:51:05;;;;;;;3.63;2.63;;;10.40;99.90;;;;;;5032876;28;20199;-84
2022/09/27 04:53:31;;;;;;;4.07;2.63;;;10.30;99.90;;;;;;5033235;28;20674;-84
2022/09/27 04:56:04;;;;;;;4.13;2.55;;;10.30;99.90;;;;;;5029840;28;20199;-85
2022/09/27 04:58:32;;;;;;;3.65;2.22;;;10.30;99.90;;;;;;5026642;28;20621;-85
2022/09/27 05:01:06;;;;;;;2.45;2.25;;;10.20;99.90;;;;;;5036489;28;20207;-85
2022/09/27 05:03:36;;;;;;;3.60;2.45;;;10.20;99.90;;;;;;5035971;28;20218;-86
2022/09/27 05:06:02;;;;;;;2.75;2.40;;;10.20;99.90;;;;;;5027757;28;20222;-85
2022/09/27 05:08:29;;;;;;;3.13;2.10;;;10.30;99.90;;;;;;5027169;28;20195;-85
2022/09/27 05:10:58;;;;;;;3.00;2.70;;;10.30;99.90;;;;;;5026938;28;20666;-85
2022/09/27 05:13:25;;;;;;;2.50;2.30;;;10.30;99.90;;;;;;5021265;28;20204;-86
2022/09/27 05:15:52;;;;;;;2.88;2.58;;;10.30;99.90;;;;;;5033774;28;20217;-86
2022/09/27 05:18:23;;;;;;;2.65;2.30;;;10.40;99.90;;;;;;5028154;28;20704;-87
2022/09/27 05:20:52;;;;;;;2.88;2.45;;;10.30;99.90;;;;;;5032715;28;20210;-86
2022/09/27 05:23:19;;;;;;;2.40;2.17;;;10.30;99.90;;;;;;5029081;28;20214;-85
2022/09/27 05:25:45;;;;;;;4.43;2.40;;;10.30;99.90;;;;;;5029048;28;20195;-85
2022/09/27 05:28:22;;;;;;;2.28;2.08;;;10.40;99.90;;;;;;5033320;28;20214;-85
2022/09/27 05:30:49;;;;;;;5.13;2.05;;;10.40;99.90;;;;;;5034708;28;20285;-85
2022/09/27 05:33:16;;;;;;;3.90;2.00;;;10.30;99.90;;;;;;5031140;28;20246;-86
2022/09/27 05:35:51;;;;;;;2.40;2.00;;;10.30;99.90;;;;;;5017471;28;20768;-85
2022/09/27 05:38:18;;;;;;;2.28;1.80;;;10.40;99.70;;;;;;5026595;28;20210;-86
2022/09/27 05:40:46;;;;;;;2.13;1.33;;;10.40;99.90;;;;;;5035763;28;20257;-87
2022/09/27 05:43:14;;;;;;;2.40;1.70;;;10.40;99.50;;;;;;5036972;28;20250;-87
2022/09/27 05:45:41;;;;;;;3.83;1.50;;;10.50;99.00;;;;;;5033231;28;20737;-85
2022/09/27 05:48:11;;;;;;;3.38;1.80;;;10.60;98.80;;;;;;5028393;28;20204;-86
2022/09/27 05:50:40;;;;;;;1.88;1.60;;;10.60;99.10;;;;;;5034607;28;20194;-86
2022/09/27 05:53:12;;;;;;;1.58;1.48;;;10.60;98.30;;;;;;5031574;28;20206;-85
2022/09/27 05:55:39;;;;;;;1.80;1.30;;;10.60;98.60;;;;;;5038889;28;20233;-86
2022/09/27 05:58:08;;;;;;;1.70;1.30;;;10.60;98.80;;;;;;5040115;28;20199;-85
2022/09/27 06:00:35;;;;;;;1.40;1.25;;;10.60;99.00;;;;;;5037663;28;20207;-86
2022/09/27 06:03:03;;;;;;;2.35;1.20;;;10.50;98.40;;;;;;5037200;28;20222;-86
2022/09/27 06:05:31;;;;;;;1.90;1.40;;;10.50;98.50;;;;;;5036101;28;20222;-86
2022/09/27 06:08:06;;;;;;;1.20;1.10;;;10.50;98.70;;;;;;5036270;28;20207;-86
2022/09/27 06:10:36;;;;;;;1.20;1.10;;;10.50;98.90;;;;;;5029044;28;20205;-85
2022/09/27 06:13:05;;;;;;;2.05;1.20;;;10.50;98.60;;;;;;5036855;28;20206;-87
2022/09/27 06:15:32;;;;;;;6.18;3.15;;;10.50;98.70;;;;;;5040324;28;20657;-87
2022/09/27 06:18:04;;;;;;;1.67;1.10;;;10.60;98.50;;;;;;5033465;28;20281;-86
2022/09/27 06:20:34;;;;;;;1.63;1.20;;;10.60;98.60;;;;;;5036591;28;20631;-86
2022/09/27 06:23:12;;;;;;;1.88;1.20;;;10.60;98.50;;;;;;5037625;28;20217;-85
2022/09/27 06:25:48;;;;;;;1.20;1.10;;;10.60;98.80;;;;;;5036375;28;20567;-86
2022/09/27 06:28:15;;;;;;;3.63;1.20;;;10.60;98.50;;;;;;5035720;28;20193;-86
2022/09/27 06:30:43;;;;;;;1.33;1.00;;;10.70;98.10;;;;;;5036243;28;20558;-85
2022/09/27 06:33:12;;;;;;;1.50;1.25;;;10.70;97.60;;;;;;5032198;28;20981;-86
2022/09/27 06:35:40;;;;;;;1.92;1.23;;;10.80;97.90;;;;;;5036761;28;20198;-86
2022/09/27 06:38:10;;;;;;;2.35;2.13;;;10.80;97.60;;;;;;5035105;28;20202;-86
2022/09/27 06:40:37;;;;;;;2.65;1.40;;;10.80;97.40;;;;;;5029552;28;20205;-86
2022/09/27 06:43:07;;;;;;;2.00;1.00;;;10.70;96.80;;;;;;5023497;28;20227;-86
2022/09/27 06:45:35;;;;;;;2.33;1.40;;;10.70;96.60;;;;;;5029052;28;20636;-86
2022/09/27 06:48:05;;;;;;;1.42;1.10;;;10.80;96.90;;;;;;5023260;28;20199;-87
2022/09/27 06:50:33;;;;;;;2.90;1.50;;;10.70;96.80;;;;;;5022032;28;20199;-87
2022/09/27 06:53:01;;;;;;;2.35;1.00;;;10.70;97.30;;;;;;5029337;28;20206;-86
2022/09/27 06:55:28;;;;;;;1.83;1.10;;;10.70;97.50;;;;;;5027893;28;20201;-86
2022/09/27 07:00:48;;;;;;;1.83;1.50;;;10.80;96.70;;;;;;5022358;28;20223;-86
2022/09/27 07:03:16;;;;;;;1.60;1.40;;;11.00;96.00;;;;;;5033102;28;20214;-86
2022/09/27 07:05:54;;;;;;;3.08;1.08;;;11.00;95.20;;;;;;5033365;28;20225;-86
2022/09/27 07:08:22;;;;;;;2.97;1.23;;;11.00;95.90;;;;;;5032621;28;20287;-87
2022/09/27 07:10:49;;;;;;;2.20;1.30;;;11.10;95.70;;;;;;5024903;28;20199;-86
2022/09/27 07:13:16;;;;;;;1.17;1.08;;;11.20;94.80;;;;;;5034753;28;20260;-86
2022/09/27 07:15:45;;;;;;;1.35;1.20;;;11.40;94.90;;;;;;5033679;28;20305;-85
2022/09/27 07:18:11;;;;;;;2.42;1.10;;;11.60;94.50;;;;;;5039840;28;20672;-86
2022/09/27 07:20:40;;;;;;;6.15;2.15;;;12.00;93.50;;;;;;5032944;28;20211;-85
2022/09/27 07:23:22;;;;;;;2.58;1.55;;;12.00;91.60;;;;;;5029145;28;20211;-85
2022/09/27 07:25:49;;;;;;;4.82;1.52;;;12.00;91.70;;;;;;5036337;28;20241;-85
2022/09/27 07:28:22;;;;;;;4.45;1.40;;;12.10;92.00;;;;;;5039355;28;20195;-87
2022/09/27 07:30:55;;;;;;;2.40;1.20;;;11.90;92.00;;;;;;5048990;28;20190;-86
2022/09/27 07:33:22;;;;;;;2.35;1.35;;;12.00;92.00;;;;;;5054307;28;20203;-87
2022/09/27 07:35:49;;;;;;;3.00;1.30;;;12.00;91.90;;;;;;5047909;28;20199;-87
2022/09/27 07:38:16;;;;;;;2.13;1.20;;;12.10;91.60;;;;;;5033743;28;20227;-85
2022/09/27 07:40:44;;;;;;;1.33;1.15;;;12.20;90.80;;;;;;5042239;28;20285;-85
2022/09/27 07:43:11;;;;;;;3.17;1.50;;;12.10;90.80;;;;;;5030954;28;20231;-85
2022/09/27 07:45:39;;;;;;;2.45;1.40;;;12.10;91.70;;;;;;5039287;28;20190;-86
2022/09/27 07:48:14;;;;;;;1.10;1.00;;;12.20;91.30;;;;;;5029688;28;20636;-85
2022/09/27 07:50:47;;;;;;;3.50;1.40;;;12.20;90.80;;;;;;5033398;28;20205;-85
2022/09/27 07:53:16;;;;;;;1.67;1.10;;;12.30;91.10;;;;;;5037472;28;20238;-85
2022/09/27 07:55:43;;;;;;;2.13;0.93;;;12.10;90.80;;;;;;5041705;28;20293;-85
2022/09/27 07:58:17;;;;;;;1.63;1.00;;;12.10;90.80;;;;;;5032301;28;20195;-85
2022/09/27 08:00:44;;;;;;;3.50;1.17;;;12.10;90.80;;;;;;5023652;28;20199;-85
2022/09/27 08:03:14;;;;;;;6.30;1.10;;;12.00;91.60;;;;;;5033792;28;20203;-86
2022/09/27 08:06:04;;;;;;;3.00;0.90;;;11.90;92.00;;;;;;5039160;28;20670;-85
2022/09/27 08:08:31;;;;;;;1.90;0.90;;;12.00;91.80;;;;;;5040414;28;20202;-85
2022/09/27 08:10:57;;;;;;;1.83;1.00;;;12.10;90.80;;;;;;5046238;28;20197;-85
2022/09/27 08:13:24;;;;;;;1.20;0.80;;;12.20;90.20;;;;;;5043068;28;20203;-86
2022/09/27 08:15:52;;;;;;;2.05;0.93;;;12.40;84.00;;;;;;5032783;28;20211;-85
2022/09/27 08:18:24;;;;;;;2.40;0.88;;;12.30;85.40;;;;;;5038781;28;20260;-85
2022/09/27 08:20:50;;;;;;;1.45;0.80;;;12.10;87.00;;;;;;5038543;28;20209;-85
2022/09/27 08:23:28;;;;;;;1.42;0.68;;;11.90;90.70;;;;;;5029821;28;20568;-86
2022/09/27 08:25:57;;;;;;;3.90;0.70;;;11.50;91.80;;;;;;5031094;28;20210;-85
2022/09/27 08:28:29;;;;;;;1.17;0.60;;;11.10;91.00;;;;;;5031594;28;20218;-86
2022/09/27 08:31:04;;;;;;;1.13;0.63;;;10.70;92.80;;;;;;5031276;28;20281;-85
2022/09/27 08:33:32;;;;;;;0.93;0.60;;;10.30;93.10;;;;;;5023148;28;20578;-85
2022/09/27 08:36:00;;;;;;;0.98;0.65;;;10.20;93.60;;;;;;5022771;28;20202;-86
2022/09/27 08:38:27;;;;;;;0.63;0.50;;;10.00;94.50;;;;;;5022316;28;20207;-87
2022/09/27 08:40:57;;;;;;;1.52;0.80;;;10.00;95.00;;;;;;5026545;28;20255;-87
2022/09/27 08:43:35;;;;;;;0.95;0.85;;;10.00;96.00;;;;;;5027052;28;20573;-87
2022/09/27 08:46:11;;;;;;;2.08;0.80;;;10.20;95.80;;;;;;5023652;28;20260;-87
2022/09/27 08:48:43;;;;;;;1.50;0.82;;;10.20;95.80;;;;;;5021111;28;20205;-86
2022/09/27 08:51:14;;;;;;;1.23;0.85;;;10.20;96.00;;;;;;5033658;28;20194;-87
2022/09/27 08:53:55;;;;;;;0.80;0.80;;;10.30;95.80;;;;;;5035040;28;20202;-86
2022/09/27 08:56:23;;;;;;;1.40;0.90;;;10.50;95.80;;;;;;5032547;28;20206;-86
2022/09/27 08:58:58;;;;;;;1.48;1.00;;;10.90;94.40;;;;;;5023253;28;20233;-86
2022/09/27 09:01:26;;;;;;;1.27;0.80;;;11.10;93.90;;;;;;5033294;28;20207;-86
2022/09/27 09:03:57;;;;;;;1.00;0.75;;;11.10;92.60;;;;;;5034000;28;20226;-87
2022/09/27 09:06:26;;;;;;;1.27;0.70;;;11.20;94.10;;;;;;5036588;28;20551;-86
2022/09/27 09:09:08;;;;;;;1.13;0.80;;;11.50;94.20;;;;;;5032807;28;20206;-86
2022/09/27 09:15:00;;;;;;;1.80;0.63;;;11.90;90.70;;;;;;5033118;28;20210;-86
2022/09/27 09:17:44;;;;;;;4.40;0.70;;;11.70;90.70;;;;;;5036323;28;20224;-85
2022/09/27 09:20:21;;;;;;;0.73;0.65;;;12.20;90.80;;;;;;5026253;28;20203;-88
2022/09/27 09:23:07;;;;;;;0.82;0.82;;;13.20;87.10;;;;;;5029309;28;20198;-88
2022/09/27 09:25:43;;;;;;;0.80;0.80;;;14.80;69.80;;;;;;5037918;28;20226;-87
2022/09/27 09:28:28;;;;;;;0.70;0.70;;;15.80;55.10;;;;;;5036635;28;20187;-84
2022/09/27 09:31:04;;;;;;;2.00;0.85;;;17.00;41.10;;;;;;5039874;28;20653;-81
2022/09/27 09:33:40;;;;;;;0.95;0.80;;;17.50;36.00;;;;;;5040366;28;20198;-81
2022/09/27 09:36:20;;;;;;;0.90;0.90;;;17.90;34.10;;;;;;5044060;28;20202;-83
2022/09/27 09:38:51;;;;;;;0.80;0.80;;;18.50;30.90;;;;;;5045342;28;20203;-83
2022/09/27 09:41:22;;;;;;;1.00;0.90;;;18.30;30.60;;;;;;5043517;28;20190;-83
2022/09/27 09:44:02;;;;;;;0.77;0.70;;;17.60;30.00;;;;;;5030334;28;20222;-82
2022/09/27 09:46:35;;;;;;;1.00;0.90;;;17.10;32.20;;;;;;5030501;28;20559;-86
2022/09/27 09:52:40;;;;;;;1.48;0.73;;;15.30;39.00;;;;;;5029977;28;20221;-87
2022/09/27 09:55:18;;;;;;;1.60;0.80;;;14.60;47.00;;;;;;5020386;28;20214;-86
2022/09/27 09:58:02;;;;;;;3.15;0.60;;;13.90;52.90;;;;;;5030275;28;20203;-87
2022/09/27 10:00:29;;;;;;;0.60;0.60;;;13.20;64.70;;;;;;5033025;28;20282;-86
2022/09/27 10:02:59;;;;;;;3.65;1.08;;;12.80;69.70;;;;;;5033735;28;20199;-86
2022/09/27 10:05:29;;;;;;;0.90;0.90;;;12.60;75.50;;;;;;5039748;28;20234;-85
2022/09/27 10:08:12;;;;;;;0.70;0.70;;;12.60;77.70;;;;;;5038851;28;20230;-84
2022/09/27 10:10:40;;;;;;;0.80;0.80;;;12.60;79.40;;;;;;5033430;28;20195;-86
2022/09/27 10:13:16;;;;;;;2.13;0.85;;;12.40;81.00;;;;;;5032521;28;20195;-86
2022/09/27 10:15:48;;;;;;;0.88;0.80;;;12.30;79.00;;;;;;5037877;28;20213;-87
2022/09/27 10:18:19;;;;;;;0.68;0.65;;;12.10;81.70;;;;;;5046106;28;20207;-87
2022/09/27 10:20:52;;;;;;;0.73;0.73;;;12.10;82.40;;;;;;5037046;28;20260;-86
2022/09/27 10:23:24;;;;;;;0.75;0.75;;;12.00;86.90;;;;;;5025419;28;20297;-84
2022/09/27 10:25:55;;;;;;;2.17;0.75;;;11.90;84.70;;;;;;5037262;28;20273;-85
2022/09/27 10:28:37;;;;;;;1.77;0.90;;;12.00;88.70;;;;;;5041321;28;20199;-85
2022/09/27 10:31:06;;;;;;;1.23;0.80;;;12.10;87.70;;;;;;5041597;28;20202;-88
2022/09/27 10:33:36;;;;;;;1.92;1.02;;;12.00;88.60;;;;;;5042109;28;20278;-86
2022/09/27 10:36:04;;;;;;;1.13;0.80;;;12.00;90.70;;;;;;5041244;28;20209;-86
2022/09/27 10:38:33;;;;;;;1.48;0.82;;;12.10;90.80;;;;;;5041518;28;20266;-87
2022/09/27 10:41:16;;;;;;;1.05;0.70;;;12.20;90.80;;;;;;5044956;28;20199;-86
2022/09/27 10:43:43;;;;;;;0.70;0.70;;;12.30;90.80;;;;;;5039638;28;20213;-88
2022/09/27 10:46:19;;;;;;;3.05;0.77;;;12.30;90.80;;;;;;5036469;28;20202;-85
2022/09/27 10:49:13;;;;;;;1.05;0.80;;;12.30;88.30;;;;;;5040599;28;20209;-85
2022/09/27 10:51:40;;;;;;;0.80;0.80;;;12.00;90.40;;;;;;5038933;28;20218;-85
2022/09/27 10:54:36;;;;;;;1.00;0.90;;;11.80;91.60;;;;;;5042214;28;20619;-84
2022/09/27 10:57:06;;;;;;;1.40;1.10;;;11.40;93.10;;;;;;5031078;28;20207;-86
2022/09/27 10:59:36;;;;;;;1.25;1.05;;;11.20;94.80;;;;;;5038450;28;20669;-86
2022/09/27 11:02:05;;;;;;;1.15;1.05;;;11.00;95.90;;;;;;5034765;28;20198;-85
2022/09/27 11:04:34;;;;;;;1.63;0.90;;;11.00;95.90;;;;;;5034765;28;20237;-86
2022/09/27 11:07:12;;;;;;;1.23;1.02;;;11.00;95.90;;;;;;5032638;28;20202;-85
2022/09/27 11:09:49;;;;;;;1.05;0.85;;;11.40;96.30;;;;;;5036278;28;20233;-85
2022/09/27 11:12:19;;;;;;;2.40;1.08;;;11.90;96.20;;;;;;5036451;28;20240;-85
2022/09/27 11:14:53;;;;;;;2.38;0.90;;;12.30;96.30;;;;;;5039416;28;20266;-85
2022/09/27 11:17:26;;;;;;;1.08;0.98;;;12.80;94.20;;;;;;5041306;28;20252;-86
2022/09/27 11:20:21;;;;;;;1.77;1.10;;;13.20;92.60;;;;;;5041804;28;20708;-86
2022/09/27 11:23:30;;;;;;;1.10;1.00;;;13.10;91.00;;;;;;5034731;28;20205;-86
2022/09/27 11:26:10;;;;;;;1.38;0.90;;;13.20;90.00;;;;;;4967393;28;20224;-85
2022/09/27 11:28:52;;;;;;;1.42;0.80;;;13.20;87.10;;;;;;4968656;28;20196;-85
2022/09/27 11:31:29;;;;;;;1.20;0.90;;;13.10;90.00;;;;;;4977981;28;20217;-86
2022/09/27 11:34:17;;;;;;;2.40;1.13;;;13.20;84.30;;;;;;4981788;28;20224;-86
2022/09/27 11:37:03;;;;;;;1.02;0.80;;;13.00;83.90;;;;;;4994106;28;20247;-85
2022/09/27 11:39:36;;;;;;;0.70;0.70;;;12.80;85.10;;;;;;4984308;28;20231;-87
2022/09/27 11:42:22;;;;;;;0.60;0.60;;;12.50;82.40;;;;;;4984566;28;20207;-85
2022/09/27 11:44:57;;;;;;;1.05;0.52;;;12.00;84.70;;;;;;4975640;28;20272;-85
2022/09/27 11:47:36;;;;;;;0.77;0.77;;;11.70;87.30;;;;;;4964189;28;20264;-85
2022/09/27 11:50:32;;;;;;;0.98;0.68;;;11.80;90.60;;;;;;4982908;28;20207;-85
2022/09/27 11:53:11;;;;;;;0.70;0.60;;;12.10;90.80;;;;;;4982687;28;20235;-85
2022/09/27 11:55:47;;;;;;;0.80;0.80;;;12.50;83.00;;;;;;4983144;28;20196;-85
2022/09/27 11:58:22;;;;;;;1.08;0.95;;;12.90;84.90;;;;;;4975877;28;20208;-86
2022/09/27 12:01:11;;;;;;;1.23;0.80;;;12.70;84.70;;;;;;5029432;28;20205;-86
2022/09/27 12:04:10;;;;;;;1.00;0.80;;;12.70;85.00;;;;;;5032310;28;20231;-86
2022/09/27 12:06:46;;;;;;;0.80;0.70;;;12.70;83.70;;;;;;4937365;29;20201;-86
2022/09/27 12:09:18;;;;;;;0.88;0.70;;;12.60;86.30;;;;;;4957908;28;20220;-85
2022/09/27 12:11:49;;;;;;;2.83;1.02;;;12.60;82.70;;;;;;4962611;28;20257;-85
2022/09/27 12:14:24;;;;;;;0.75;0.70;;;12.50;82.40;;;;;;4961640;29;20221;-85
2022/09/27 12:16:53;;;;;;;0.70;0.70;;;12.30;82.00;;;;;;4958164;29;20212;-85
2022/09/27 12:19:24;;;;;;;0.73;0.73;;;12.20;82.10;;;;;;4961175;28;20198;-85
2022/09/27 12:21:51;;;;;;;1.25;0.80;;;12.40;82.20;;;;;;4953197;29;20201;-85
2022/09/27 12:24:24;;;;;;;1.38;0.73;;;12.80;81.50;;;;;;4960828;29;20609;-85
2022/09/27 12:26:56;;;;;;;1.30;0.80;;;13.10;82.30;;;;;;4957295;29;20213;-85
2022/09/27 12:29:28;;;;;;;1.83;0.60;;;13.30;81.50;;;;;;4950043;29;20210;-86
2022/09/27 12:32:04;;;;;;;2.78;0.93;;;13.40;79.90;;;;;;4955352;29;20205;-86
2022/09/27 12:34:37;;;;;;;1.00;0.90;;;13.40;77.70;;;;;;4954367;29;20201;-86
2022/09/27 12:37:19;;;;;;;3.17;0.90;;;13.50;76.20;;;;;;4953015;28;20201;-86
2022/09/27 12:39:53;;;;;;;1.17;0.80;;;13.50;76.20;;;;;;4956412;28;20220;-86
2022/09/27 12:42:24;;;;;;;1.00;0.90;;;13.40;76.20;;;;;;4967211;28;20289;-85
2022/09/27 12:44:53;;;;;;;1.27;0.82;;;13.50;76.20;;;;;;5036355;28;20594;-84
2022/09/27 12:47:44;;;;;;;1.05;0.95;;;13.60;76.30;;;;;;5041477;28;20194;-86
2022/09/27 12:50:33;;;;;;;1.00;1.00;;;13.80;58.60;;;;;;5024737;28;20603;-86
2022/09/27 12:53:18;;;;;;;0.90;0.90;;;13.80;57.10;;;;;;5029523;28;20199;-86
2022/09/27 12:56:10;;;;;;;0.80;0.80;;;13.60;68.10;;;;;;5031826;28;20195;-92
2022/09/27 12:59:09;;;;;;;1.95;0.70;;;13.70;71.10;;;;;;5034528;28;20250;-86
2022/09/27 13:01:58;;;;;;;2.92;0.98;;;13.90;59.90;;;;;;5019687;28;20198;-87
2022/09/27 13:04:40;;;;;;;1.73;1.08;;;13.90;62.10;;;;;;5031560;28;20248;-85
2022/09/27 13:07:17;;;;;;;3.53;1.20;;;14.00;62.90;;;;;;5029681;28;20200;-87
2022/09/27 13:10:25;;;;;;;1.40;0.88;;;14.40;61.30;;;;;;5031141;28;20213;-86
2022/09/27 13:12:54;;;;;;;2.22;1.30;;;14.40;57.10;;;;;;5026187;28;20623;-85
2022/09/27 13:15:27;;;;;;;1.90;1.02;;;14.20;60.30;;;;;;5033642;28;20758;-85
2022/09/27 13:18:02;;;;;;;1.30;1.10;;;14.00;49.20;;;;;;5032350;28;20244;-85
2022/09/27 13:20:50;;;;;;;3.47;1.00;;;13.90;52.20;;;;;;5038172;28;20197;-85
2022/09/27 13:23:59;;;;;;;1.13;1.00;;;13.60;48.90;;;;;;5034242;28;20192;-84
2022/09/27 13:26:47;;;;;;;2.72;1.40;;;13.50;50.00;;;;;;4946073;28;20260;-84
2022/09/27 13:29:32;;;;;;;1.27;0.82;;;13.40;49.90;;;;;;4952761;28;20693;-85
2022/09/27 13:32:27;;;;;;;2.22;1.00;;;13.30;49.90;;;;;;4954270;29;20205;-84